Flight Track Log - Related Links

Times and Time Zones

All times are in EDT time to prevent confusion due to time zone crossing. See the VH-RWT flight status page for this flight to view local times or setup timezone preferences in your user account.

Time Position Orientation Groundspeed Altitude Reporting Facility
EDT Latitude Longitude Course Direction KTS MPH feet Rate Location/Type
Sat 03:03:10 AM -32.0579 115.7909 294° West 84 97 1,500  Level Aus ATC (RADAR)
Sat 03:03:45 AM -32.0522 115.7760 294° West 84 97 1,600  Climbing Aus ATC (RADAR)
Sat 03:04:25 AM -32.0363 115.7698 342° North 90 104 1,500 -86 Descending Aus ATC (RADAR)
Sat 03:04:55 AM -32.0242 115.7690 357° North 87 100 1,500 92 Level Aus ATC (RADAR)
Sat 03:05:30 AM -32.0100 115.7698 North 87 100 1,600 86 Climbing Aus ATC (RADAR)
Sat 03:06:05 AM -31.9954 115.7720 North 90 104 1,600  Level Aus ATC (RADAR)
Sat 03:06:40 AM -31.9807 115.7733 North 88 101 1,600 92 Level Aus ATC (RADAR)
Sat 03:07:10 AM -31.9803 115.7601 272° West 87 100 1,700 -94 Climbing Aus ATC (RADAR)
Sat 03:07:44 AM -31.9996 115.7584 184° South 117 135 1,500 -277 Descending Aus ATC (RADAR)
Sat 03:08:15 AM -32.0111 115.7701 139° Southeast 113 130 1,400  Descending Aus ATC (RADAR)
Sat 03:08:49 AM -32.0020 115.7872 58° Northeast 99 114 1,500 162 Climbing Aus ATC (RADAR)
Sat 03:09:29 AM -31.9913 115.8049 54° Northeast 97 112 1,600 86 Climbing Aus ATC (RADAR)
Sat 03:09:59 AM -31.9819 115.8185 51° Northeast 104 120 1,600 -92 Level Aus ATC (RADAR)
Sat 03:10:34 AM -31.9713 115.8350 53° Northeast 106 122 1,500 -86 Descending Aus ATC (RADAR)
Sat 03:11:09 AM -31.9667 115.8548 75° East 107 123 1,500  Level Aus ATC (RADAR)
Sat 03:11:39 AM -31.9680 115.8721 95° East 104 120 1,500 92 Level Aus ATC (RADAR)
Sat 03:12:14 AM -31.9599 115.8871 58° Northeast 99 114 1,600 86 Climbing Aus ATC (RADAR)
Sat 03:12:49 AM -31.9506 115.8752 313° West 87 100 1,600 -92 Level Aus ATC (RADAR)
Sat 03:13:19 AM -31.9446 115.8615 297° West 91 105 1,500 -92 Descending Aus ATC (RADAR)
Sat 03:13:54 AM -31.9380 115.8465 297° West 85 98 1,500 80 Level Aus ATC (RADAR)
Sat 03:14:34 AM -31.9315 115.8290 294° West 85 98 1,600 86 Climbing Aus ATC (RADAR)
Sat 03:15:04 AM -31.9255 115.8170 300° West 84 97 1,600  Level Aus ATC (RADAR)
Sat 03:15:39 AM -31.9187 115.8020 298° West 87 100 1,600  Level Aus ATC (RADAR)
Sat 03:15:59 AM -31.9147 115.7936 159° South 86 99 1,600  Level Aus ATC (RADAR)
Sat 03:17:00 AM -31.9361 115.8097 159° South  Level Estimated
Sat 03:18:00 AM -31.8952 115.7565 302° West  Level FlightAware Approximate
Sat 03:25:00 AM -32.0038 115.7559 180° South  Level FlightAware Approximate
Sat 03:26:00 AM -32.0221 115.7561 180° South  Level FlightAware Approximate
Sat 03:27:00 AM -32.0405 115.7562 180° South  Level FlightAware Approximate
Sat 03:28:00 AM -32.0588 115.7564 180° South  Level FlightAware Approximate
Sat 03:29:00 AM -32.0772 115.7565 180° South  Level FlightAware Approximate
Sat 03:30:00 AM -32.0953 115.7570 90° East  Level FlightAware Approximate
Sat 03:31:00 AM -32.0953 115.7787 90° East  Level FlightAware Approximate
Sat 03:32:00 AM -32.0953 115.8004 90° East  Level FlightAware Approximate
Sat 03:33:00 AM -32.0954 115.8221 92° East  Level FlightAware Approximate
Sat 03:34:00 AM -32.0962 115.8437 92° East  Level FlightAware Approximate
Sat 03:35:00 AM -32.0969 115.8654 92° East  Level FlightAware Approximate
Sat 03:36:00 AM -32.0975 115.8812 92° East  Level FlightAware Approximate
Sat 03:37:00 AM -32.0975 115.8811 92° East  Level Estimated
Sat 03:38:00 AM -32.0975 115.8811 92° East  Level Estimated
Sat 03:39:00 AM -32.0975 115.8811 92° East  Level Estimated
Sat 03:40:00 AM -32.0975 115.8811 92° East  Level Estimated
Sat 03:41:00 AM -32.0975 115.8811 92° East  Level Estimated
Sat 03:42:00 AM -32.0975 115.8811 92° East  Level Estimated
Sat 03:43:00 AM -32.0975 115.8811 92° East  Level Estimated
Sat 03:44:00 AM -32.0975 115.8811 92° East  Level Estimated
Sat 03:45:00 AM -32.0975 115.8811 92° East  Level Estimated
Sat 03:46:00 AM -32.0975 115.8811 92° East  Level Estimated
Sat 03:47:00 AM -32.0975 115.8811 92° East  Level Estimated
Sat 03:48:00 AM -32.0975 115.8811 92° East  Level Estimated
Sat 03:49:00 AM -32.0975 115.8811 92° East  Level Estimated
Sat 03:50:00 AM -32.0975 115.8811 92° East  Level Estimated
Sat 03:51:00 AM -32.0975 115.8811 92° East  Level Estimated
Sat 03:52:00 AM -32.0975 115.8811 92° East  Level Estimated

Login

Don't have an account? Register now (free) for customized features, flight alerts, and more!